createdAt,value
2022-10-22T00:00:03.807Z,19.10
2022-10-22T00:02:31.910Z,19.00
2022-10-22T00:04:58.841Z,18.90
2022-10-22T00:07:25.789Z,18.90
2022-10-22T00:09:52.713Z,18.80
2022-10-22T00:12:19.817Z,18.80
2022-10-22T00:14:47.859Z,18.80
2022-10-22T00:17:14.939Z,18.70
2022-10-22T00:19:41.876Z,18.70
2022-10-22T00:22:10.031Z,18.70
2022-10-22T00:24:38.623Z,18.60
2022-10-22T00:27:07.178Z,18.70
2022-10-22T00:29:34.163Z,18.70
2022-10-22T00:32:01.012Z,18.70
2022-10-22T00:34:28.295Z,18.70
2022-10-22T00:36:55.517Z,18.60
2022-10-22T00:39:24.210Z,18.70
2022-10-22T00:41:53.405Z,18.70
2022-10-22T00:44:57.494Z,18.70
2022-10-22T00:47:25.442Z,18.70
2022-10-22T00:49:53.814Z,18.70
2022-10-22T00:52:21.527Z,18.70
2022-10-22T00:54:48.995Z,18.70
2022-10-22T00:57:17.591Z,18.80
2022-10-22T00:59:44.455Z,18.80
2022-10-22T01:02:11.335Z,18.80
2022-10-22T01:04:38.246Z,18.70
2022-10-22T01:07:05.632Z,18.80
2022-10-22T01:09:37.341Z,18.80
2022-10-22T01:12:10.419Z,18.80
2022-10-22T01:14:49.197Z,18.80
2022-10-22T01:17:24.883Z,18.80
2022-10-22T01:20:10.492Z,18.70
2022-10-22T01:22:58.687Z,18.70
2022-10-22T01:25:37.072Z,18.70
2022-10-22T01:28:19.962Z,18.70
2022-10-22T01:30:50.954Z,18.60
2022-10-22T01:33:20.146Z,18.60
2022-10-22T01:35:47.240Z,18.70
2022-10-22T01:38:21.378Z,18.60
2022-10-22T01:40:48.912Z,18.60
2022-10-22T01:43:16.711Z,18.60
2022-10-22T01:45:57.870Z,18.60
2022-10-22T01:48:52.508Z,18.50
2022-10-22T01:51:25.381Z,18.50
2022-10-22T01:54:10.038Z,18.50
2022-10-22T01:56:45.790Z,18.50
2022-10-22T01:59:25.305Z,18.40
2022-10-22T02:01:59.019Z,18.40
2022-10-22T02:04:50.890Z,18.40
2022-10-22T02:07:21.388Z,18.40
2022-10-22T02:09:51.020Z,18.40
2022-10-22T02:12:19.241Z,18.30
2022-10-22T02:14:49.486Z,18.30
2022-10-22T02:17:21.354Z,18.30
2022-10-22T02:19:54.828Z,18.30
2022-10-22T02:22:21.780Z,18.30
2022-10-22T02:24:49.782Z,18.30
2022-10-22T02:27:25.928Z,18.30
2022-10-22T02:30:14.093Z,18.30
2022-10-22T02:33:00.312Z,18.40
2022-10-22T02:35:28.975Z,18.30
2022-10-22T02:37:57.458Z,18.30
2022-10-22T02:40:25.115Z,18.30
2022-10-22T02:42:53.002Z,18.30
2022-10-22T02:45:20.567Z,18.30
2022-10-22T02:47:47.813Z,18.30
2022-10-22T02:50:14.804Z,18.30
2022-10-22T02:52:42.110Z,18.30
2022-10-22T02:55:09.522Z,18.30
2022-10-22T02:57:36.588Z,18.30
2022-10-22T03:00:05.464Z,18.30
2022-10-22T03:02:32.297Z,18.30
2022-10-22T03:04:59.158Z,18.20
2022-10-22T03:07:26.067Z,18.20
2022-10-22T03:09:52.943Z,18.30
2022-10-22T03:12:19.790Z,18.30
2022-10-22T03:14:46.671Z,18.20
2022-10-22T03:17:13.591Z,18.20
2022-10-22T03:19:40.397Z,18.10
2022-10-22T03:22:15.593Z,18.10
2022-10-22T03:24:45.333Z,18.10
2022-10-22T03:27:15.066Z,18.20
2022-10-22T03:29:42.719Z,18.10
2022-10-22T03:32:09.632Z,18.10
2022-10-22T03:34:36.430Z,18.10
2022-10-22T03:37:03.348Z,18.10
2022-10-22T03:39:33.146Z,18.00
2022-10-22T03:42:00.947Z,18.00
2022-10-22T03:44:28.473Z,18.00
2022-10-22T03:46:58.686Z,18.00
2022-10-22T03:49:28.626Z,18.00
2022-10-22T03:51:55.884Z,18.00
2022-10-22T03:54:22.733Z,18.00
2022-10-22T03:56:49.516Z,18.00
2022-10-22T03:59:16.428Z,18.00
2022-10-22T04:01:43.278Z,18.00
2022-10-22T04:04:10.118Z,18.00
2022-10-22T04:06:36.965Z,18.00
2022-10-22T04:09:04.017Z,18.00
2022-10-22T04:11:31.047Z,18.00
2022-10-22T04:13:57.943Z,18.00
2022-10-22T04:16:27.423Z,18.00
2022-10-22T04:18:57.641Z,18.00
2022-10-22T04:21:25.014Z,17.90
2022-10-22T04:23:53.270Z,17.90
2022-10-22T04:26:21.089Z,17.90
2022-10-22T04:28:49.399Z,17.90
2022-10-22T04:31:21.649Z,17.80
2022-10-22T04:33:52.944Z,17.80
2022-10-22T04:36:20.005Z,17.80
2022-10-22T04:38:48.192Z,17.80
2022-10-22T04:41:24.094Z,17.80
2022-10-22T04:43:51.066Z,17.80
2022-10-22T04:46:18.806Z,17.90
2022-10-22T04:48:47.002Z,17.80
2022-10-22T04:51:19.267Z,17.80
2022-10-22T04:53:46.623Z,17.80
2022-10-22T04:56:16.393Z,17.80
2022-10-22T04:58:44.123Z,17.80
2022-10-22T05:01:19.719Z,17.80
2022-10-22T05:03:50.179Z,17.80
2022-10-22T05:06:17.998Z,17.80
2022-10-22T05:08:44.966Z,17.80
2022-10-22T05:11:23.556Z,17.80
2022-10-22T05:13:50.517Z,17.80
2022-10-22T05:16:17.524Z,17.70
2022-10-22T05:18:45.802Z,17.70
2022-10-22T05:21:18.561Z,17.70
2022-10-22T05:23:47.225Z,17.70
2022-10-22T05:26:17.232Z,17.70
2022-10-22T05:28:44.097Z,17.70
2022-10-22T05:31:12.795Z,17.70
2022-10-22T05:33:40.250Z,17.70
2022-10-22T05:36:08.765Z,17.70
2022-10-22T05:38:36.122Z,17.60
2022-10-22T05:41:06.760Z,17.60
2022-10-22T05:43:34.353Z,17.70
2022-10-22T05:46:10.091Z,17.70
2022-10-22T05:48:37.735Z,17.60
2022-10-22T05:51:10.253Z,17.70
2022-10-22T05:53:39.895Z,17.70
2022-10-22T05:56:12.310Z,17.60
2022-10-22T05:58:39.308Z,17.60
2022-10-22T06:01:20.355Z,17.60
2022-10-22T06:03:48.506Z,17.60
2022-10-22T06:06:21.802Z,17.50
2022-10-22T06:08:50.705Z,17.50
2022-10-22T06:11:18.808Z,17.50
2022-10-22T06:13:46.387Z,17.50
2022-10-22T06:16:13.993Z,17.50
2022-10-22T06:18:41.183Z,17.50
2022-10-22T06:21:10.866Z,17.60
2022-10-22T06:23:39.172Z,17.60
2022-10-22T06:26:07.362Z,17.60
2022-10-22T06:28:34.432Z,17.60
2022-10-22T06:31:03.983Z,17.60
2022-10-22T06:33:32.945Z,17.60
2022-10-22T06:36:13.673Z,17.60
2022-10-22T06:38:41.185Z,17.60
2022-10-22T06:41:13.349Z,17.60
2022-10-22T06:43:41.566Z,17.60
2022-10-22T06:46:09.952Z,17.70
2022-10-22T06:48:38.014Z,17.70
2022-10-22T06:51:07.863Z,17.70
2022-10-22T06:53:35.342Z,17.70
2022-10-22T06:56:10.339Z,17.70
2022-10-22T06:58:37.265Z,17.70
2022-10-22T07:01:14.963Z,17.70
2022-10-22T07:03:42.521Z,17.80
2022-10-22T07:06:12.283Z,17.80
2022-10-22T07:08:40.252Z,17.90
2022-10-22T07:11:26.221Z,17.90
2022-10-22T07:13:55.812Z,17.90
2022-10-22T07:16:23.592Z,17.90
2022-10-22T07:18:52.530Z,17.90
2022-10-22T07:21:20.504Z,18.00
2022-10-22T07:23:47.655Z,18.00
2022-10-22T07:26:16.374Z,18.00
2022-10-22T07:28:43.584Z,18.10
2022-10-22T07:31:12.755Z,18.20
2022-10-22T07:33:40.311Z,18.20
2022-10-22T07:36:10.210Z,18.30
2022-10-22T07:38:37.121Z,18.30
2022-10-22T07:41:04.247Z,18.40
2022-10-22T07:43:31.176Z,18.40
2022-10-22T07:45:59.609Z,18.50
2022-10-22T07:48:26.541Z,18.50
2022-10-22T07:50:53.470Z,18.60
2022-10-22T07:53:24.161Z,18.70
2022-10-22T07:55:51.891Z,18.80
2022-10-22T07:58:20.054Z,18.90
2022-10-22T08:00:47.473Z,19.00
2022-10-22T08:03:16.238Z,19.10
2022-10-22T08:05:46.280Z,19.10
2022-10-22T08:08:14.891Z,19.20
2022-10-22T08:10:42.114Z,19.20
2022-10-22T08:13:09.199Z,19.20
2022-10-22T08:15:36.544Z,19.30
2022-10-22T08:18:03.647Z,19.30
2022-10-22T08:20:30.475Z,19.30
2022-10-22T08:22:57.931Z,19.40
2022-10-22T08:25:25.117Z,19.40
2022-10-22T08:27:52.225Z,19.50
2022-10-22T08:30:19.566Z,19.60
2022-10-22T08:32:46.824Z,19.60
2022-10-22T08:35:16.980Z,19.70
2022-10-22T08:37:45.646Z,19.60
2022-10-22T08:40:23.279Z,19.70
2022-10-22T08:43:23.942Z,19.80
2022-10-22T08:46:11.077Z,19.80
2022-10-22T08:48:52.506Z,19.80
2022-10-22T08:51:27.207Z,19.80
2022-10-22T08:54:15.265Z,19.80
2022-10-22T08:56:47.865Z,19.90
2022-10-22T08:59:16.366Z,19.90
2022-10-22T09:01:47.054Z,19.90
2022-10-22T09:04:14.009Z,19.90
2022-10-22T09:06:41.776Z,19.90
2022-10-22T09:09:16.599Z,19.90
2022-10-22T09:11:49.830Z,19.90
2022-10-22T09:14:22.537Z,19.90
2022-10-22T09:16:55.124Z,20.00
2022-10-22T09:19:33.033Z,20.10
2022-10-22T09:22:17.416Z,20.20
2022-10-22T09:24:49.441Z,20.30
2022-10-22T09:27:25.722Z,20.40
2022-10-22T09:29:52.623Z,20.50
2022-10-22T09:32:19.841Z,20.70
2022-10-22T09:34:48.067Z,20.80
2022-10-22T09:37:18.564Z,20.90
2022-10-22T09:39:48.343Z,20.90
2022-10-22T09:42:18.103Z,20.90
2022-10-22T09:44:55.030Z,21.00
2022-10-22T09:47:43.430Z,21.10
2022-10-22T09:50:22.797Z,21.10
2022-10-22T09:53:04.801Z,21.20
2022-10-22T09:55:32.221Z,21.20
2022-10-22T09:58:00.783Z,21.30
2022-10-22T10:00:29.611Z,21.50
2022-10-22T10:02:58.641Z,21.70
2022-10-22T10:05:30.197Z,21.80
2022-10-22T10:07:58.242Z,22.00
2022-10-22T10:10:38.751Z,22.10
2022-10-22T10:13:14.812Z,22.20
2022-10-22T10:16:28.689Z,22.30
2022-10-22T10:19:01.596Z,22.40
2022-10-22T10:21:49.491Z,22.50
2022-10-22T10:24:50.442Z,22.50
2022-10-22T10:27:32.299Z,22.40
2022-10-22T10:30:04.025Z,22.40
2022-10-22T10:32:33.647Z,22.40
2022-10-22T10:35:18.473Z,22.40
2022-10-22T10:37:54.067Z,22.40
2022-10-22T10:40:40.151Z,22.40
2022-10-22T10:43:41.712Z,22.40
2022-10-22T10:46:25.492Z,22.40
2022-10-22T10:48:58.774Z,22.30
2022-10-22T10:51:43.712Z,22.40
2022-10-22T10:54:28.866Z,22.40
2022-10-22T10:57:11.948Z,22.40
2022-10-22T11:00:24.827Z,22.50
2022-10-22T11:03:22.074Z,22.50
2022-10-22T11:05:55.611Z,22.50
2022-10-22T11:08:28.993Z,22.50
2022-10-22T11:11:14.297Z,22.60
2022-10-22T11:14:03.464Z,22.60
2022-10-22T11:16:55.625Z,22.70
2022-10-22T11:19:53.111Z,22.70
2022-10-22T11:22:37.364Z,22.60
2022-10-22T11:25:13.464Z,22.50
2022-10-22T11:27:58.560Z,22.40
2022-10-22T11:30:37.875Z,22.30
2022-10-22T11:33:11.300Z,22.20
2022-10-22T11:35:42.438Z,22.20
2022-10-22T11:38:15.048Z,22.10
2022-10-22T11:41:11.830Z,22.00
2022-10-22T11:44:21.515Z,22.00
2022-10-22T11:47:08.584Z,22.00
2022-10-22T11:49:44.248Z,22.00
2022-10-22T11:52:37.213Z,21.90
2022-10-22T11:55:55.552Z,21.90
2022-10-22T11:58:32.994Z,21.90
2022-10-22T12:01:03.006Z,21.90
2022-10-22T12:03:33.017Z,21.90
2022-10-22T12:06:19.706Z,21.80
2022-10-22T12:08:49.586Z,21.80
2022-10-22T12:11:19.482Z,21.80
2022-10-22T12:14:02.629Z,21.80
2022-10-22T12:16:56.219Z,21.80
2022-10-22T12:19:23.958Z,21.80
2022-10-22T12:21:58.248Z,21.80
2022-10-22T12:24:29.372Z,21.80
2022-10-22T12:26:56.374Z,21.90
2022-10-22T12:29:25.541Z,21.90
2022-10-22T12:31:52.718Z,22.00
2022-10-22T12:34:23.651Z,22.00
2022-10-22T12:36:53.201Z,22.00
2022-10-22T12:39:26.594Z,22.00
2022-10-22T12:41:54.799Z,22.10
2022-10-22T12:44:21.668Z,22.10
2022-10-22T12:46:53.057Z,22.10
2022-10-22T12:49:36.448Z,22.10
2022-10-22T12:52:14.062Z,22.20
2022-10-22T12:54:41.239Z,22.20
2022-10-22T12:57:16.524Z,22.20
2022-10-22T12:59:49.952Z,22.20
2022-10-22T13:02:27.748Z,22.20
2022-10-22T13:05:20.633Z,22.20
2022-10-22T13:07:50.819Z,22.20
2022-10-22T13:10:19.651Z,22.30
2022-10-22T13:12:51.325Z,22.30
2022-10-22T13:15:28.610Z,22.30
2022-10-22T13:18:05.943Z,22.30
2022-10-22T13:20:33.462Z,22.20
2022-10-22T13:23:02.807Z,22.20
2022-10-22T13:25:30.904Z,22.10
2022-10-22T13:28:20.510Z,22.10
2022-10-22T13:30:59.413Z,22.10
2022-10-22T13:33:29.032Z,22.10
2022-10-22T13:35:56.984Z,22.00
2022-10-22T13:38:26.281Z,22.00
2022-10-22T13:40:53.375Z,22.00
2022-10-22T13:43:20.637Z,22.00
2022-10-22T13:45:51.961Z,22.10
2022-10-22T13:48:22.011Z,22.10
2022-10-22T13:50:50.563Z,22.10
2022-10-22T13:53:20.779Z,22.10
2022-10-22T13:55:47.926Z,22.20
2022-10-22T13:58:19.921Z,22.20
2022-10-22T14:00:54.950Z,22.20
2022-10-22T14:03:26.115Z,22.30
2022-10-22T14:05:53.113Z,22.30
2022-10-22T14:08:22.604Z,22.30
2022-10-22T14:10:49.475Z,22.20
2022-10-22T14:13:18.974Z,22.20
2022-10-22T14:15:48.321Z,22.10
2022-10-22T14:18:35.775Z,22.10
2022-10-22T14:21:07.302Z,22.10
2022-10-22T14:23:35.954Z,22.00
2022-10-22T14:26:04.050Z,22.00
2022-10-22T14:28:34.222Z,21.90
2022-10-22T14:31:04.175Z,21.90
2022-10-22T14:33:33.621Z,21.90
2022-10-22T14:36:01.657Z,21.90
2022-10-22T14:38:29.170Z,21.80
2022-10-22T14:40:56.353Z,21.80
2022-10-22T14:43:28.515Z,21.80
2022-10-22T14:45:55.404Z,21.80
2022-10-22T14:48:22.247Z,21.80
2022-10-22T14:50:49.443Z,21.70
2022-10-22T14:53:16.864Z,21.80
2022-10-22T14:55:45.188Z,21.70
2022-10-22T14:58:12.474Z,21.80
2022-10-22T15:00:42.272Z,21.70
2022-10-22T15:03:09.990Z,21.70
2022-10-22T15:05:42.117Z,21.70
2022-10-22T15:08:09.012Z,21.70
2022-10-22T15:10:36.058Z,21.70
2022-10-22T15:13:02.957Z,21.70
2022-10-22T15:15:34.206Z,21.70
2022-10-22T15:18:06.192Z,21.70
2022-10-22T15:20:33.073Z,21.70
2022-10-22T15:23:00.449Z,21.70
2022-10-22T15:25:27.553Z,21.70
2022-10-22T15:27:58.527Z,21.70
2022-10-22T15:30:31.753Z,21.70
2022-10-22T15:32:58.571Z,21.70
2022-10-22T15:35:28.714Z,21.70
2022-10-22T15:37:55.710Z,21.60
2022-10-22T15:40:22.604Z,21.60
2022-10-22T15:42:49.459Z,21.60
2022-10-22T15:45:16.565Z,21.60
2022-10-22T15:47:48.316Z,21.60
2022-10-22T15:50:16.365Z,21.50
2022-10-22T15:52:43.249Z,21.50
2022-10-22T15:55:10.650Z,21.50
2022-10-22T15:57:39.194Z,21.50
2022-10-22T16:00:07.540Z,21.40
2022-10-22T16:02:39.332Z,21.40
2022-10-22T16:05:06.759Z,21.30
2022-10-22T16:07:33.672Z,21.30
2022-10-22T16:10:01.614Z,21.20
2022-10-22T16:12:28.582Z,21.20
2022-10-22T16:14:55.422Z,21.10
2022-10-22T16:17:22.316Z,21.00
2022-10-22T16:19:49.771Z,21.00
2022-10-22T16:22:16.646Z,20.90
2022-10-22T16:24:43.503Z,20.80
2022-10-22T16:27:10.936Z,20.80
2022-10-22T16:29:41.981Z,20.70
2022-10-22T16:32:08.901Z,20.60
2022-10-22T16:34:35.723Z,20.50
2022-10-22T16:37:02.640Z,20.50
2022-10-22T16:39:29.495Z,20.50
2022-10-22T16:41:56.363Z,20.40
2022-10-22T16:44:23.770Z,20.30
2022-10-22T16:46:50.719Z,20.30
2022-10-22T16:49:17.587Z,20.20
2022-10-22T16:51:44.439Z,20.10
2022-10-22T16:54:14.072Z,20.10
2022-10-22T16:56:41.113Z,20.00
2022-10-22T16:59:08.046Z,19.90
2022-10-22T17:01:40.369Z,19.80
2022-10-22T17:04:08.346Z,19.80
2022-10-22T17:06:35.461Z,19.80
2022-10-22T17:09:02.296Z,19.80
2022-10-22T17:11:34.777Z,19.80
2022-10-22T17:14:02.808Z,19.70
2022-10-22T17:16:30.009Z,19.70
2022-10-22T17:18:58.145Z,19.70
2022-10-22T17:21:25.173Z,19.70
2022-10-22T17:23:56.959Z,19.70
2022-10-22T17:26:26.460Z,19.60
2022-10-22T17:28:53.717Z,19.50
2022-10-22T17:31:22.715Z,19.50
2022-10-22T17:33:51.746Z,19.50
2022-10-22T17:36:20.299Z,19.40
2022-10-22T17:38:52.952Z,19.40
2022-10-22T17:41:22.745Z,19.40
2022-10-22T17:43:49.838Z,19.30
2022-10-22T17:46:22.467Z,19.30
2022-10-22T17:48:53.297Z,19.20
2022-10-22T17:51:21.408Z,19.20
2022-10-22T17:53:50.182Z,19.10
2022-10-22T17:56:20.637Z,19.00
2022-10-22T17:58:47.963Z,19.00
2022-10-22T18:01:32.718Z,18.90
2022-10-22T18:04:02.287Z,18.80
2022-10-22T18:06:29.766Z,18.80
2022-10-22T18:08:56.649Z,18.70
2022-10-22T18:11:25.579Z,18.70
2022-10-22T18:13:55.019Z,18.60
2022-10-22T18:16:22.448Z,18.60
2022-10-22T18:18:51.352Z,18.60
2022-10-22T18:21:19.379Z,18.60
2022-10-22T18:23:46.794Z,18.60
2022-10-22T18:26:14.745Z,18.50
2022-10-22T18:28:41.653Z,18.50
2022-10-22T18:31:10.403Z,18.40
2022-10-22T18:33:37.725Z,18.40
2022-10-22T18:36:09.306Z,18.40
2022-10-22T18:38:38.285Z,18.40
2022-10-22T18:41:13.517Z,18.30
2022-10-22T18:43:40.361Z,18.30
2022-10-22T18:46:08.193Z,18.30
2022-10-22T18:48:38.144Z,18.20
2022-10-22T18:51:08.694Z,18.20
2022-10-22T18:53:36.720Z,18.20
2022-10-22T18:56:11.769Z,18.20
2022-10-22T18:58:39.813Z,18.10
2022-10-22T19:01:11.531Z,18.10
2022-10-22T19:03:38.415Z,18.10
2022-10-22T19:06:05.808Z,18.10
2022-10-22T19:08:34.362Z,18.00
2022-10-22T19:11:01.818Z,18.00
2022-10-22T19:13:28.883Z,18.00
2022-10-22T19:16:02.752Z,17.90
2022-10-22T19:18:29.630Z,17.90
2022-10-22T19:21:01.648Z,17.90
2022-10-22T19:23:32.714Z,17.90
2022-10-22T19:26:13.679Z,17.90
2022-10-22T19:28:41.171Z,17.80
2022-10-22T19:31:09.635Z,17.80
2022-10-22T19:33:37.284Z,17.80
2022-10-22T19:36:12.698Z,17.80
2022-10-22T19:38:41.422Z,17.80
2022-10-22T19:41:13.123Z,17.80
2022-10-22T19:43:43.783Z,17.80
2022-10-22T19:46:11.486Z,17.70
2022-10-22T19:48:38.425Z,17.70
2022-10-22T19:51:09.367Z,17.70
2022-10-22T19:53:38.278Z,17.70
2022-10-22T19:56:07.351Z,17.70
2022-10-22T19:58:34.824Z,17.70
2022-10-22T20:01:11.008Z,17.70
2022-10-22T20:03:42.370Z,17.70
2022-10-22T20:06:11.270Z,17.70
2022-10-22T20:08:40.061Z,17.70
2022-10-22T20:11:13.238Z,17.70
2022-10-22T20:16:14.852Z,17.60
2022-10-22T20:18:41.694Z,17.60
2022-10-22T20:21:13.249Z,17.60
2022-10-22T20:23:40.127Z,17.60
2022-10-22T20:26:07.119Z,17.60
2022-10-22T20:28:34.002Z,17.60
2022-10-22T20:31:00.826Z,17.60
2022-10-22T20:33:27.717Z,17.60
2022-10-22T20:36:02.280Z,17.60
2022-10-22T20:38:29.521Z,17.60
2022-10-22T20:41:11.813Z,17.60
2022-10-22T20:43:38.635Z,17.60
2022-10-22T20:46:05.850Z,17.50
2022-10-22T20:48:33.412Z,17.50
2022-10-22T20:51:00.855Z,17.50
2022-10-22T20:53:28.156Z,17.60
2022-10-22T20:55:58.433Z,17.50
2022-10-22T20:58:27.206Z,17.50
2022-10-22T21:00:55.489Z,17.50
2022-10-22T21:03:23.255Z,17.50
2022-10-22T21:05:50.165Z,17.40
2022-10-22T21:08:19.668Z,17.40
2022-10-22T21:10:48.804Z,17.40
2022-10-22T21:13:17.164Z,17.40
2022-10-22T21:15:44.042Z,17.40
2022-10-22T21:18:11.254Z,17.40
2022-10-22T21:20:39.692Z,17.40
2022-10-22T21:23:06.986Z,17.40
2022-10-22T21:25:34.555Z,17.50
2022-10-22T21:28:01.667Z,17.50
2022-10-22T21:30:28.437Z,17.50
2022-10-22T21:32:56.834Z,17.40
2022-10-22T21:35:24.355Z,17.40
2022-10-22T21:37:51.263Z,17.40
2022-10-22T21:40:18.113Z,17.30
2022-10-22T21:42:45.035Z,17.40
2022-10-22T21:45:13.611Z,17.40
2022-10-22T21:47:41.968Z,17.40
2022-10-22T21:50:09.396Z,17.40
2022-10-22T21:52:36.287Z,17.50
2022-10-22T21:55:03.253Z,17.50
2022-10-22T21:57:30.143Z,17.50
2022-10-22T21:59:56.976Z,17.50
2022-10-22T22:02:24.024Z,17.50
2022-10-22T22:04:54.764Z,17.40
2022-10-22T22:07:22.090Z,17.40
2022-10-22T22:09:50.228Z,17.40
2022-10-22T22:12:18.359Z,17.40
2022-10-22T22:14:45.260Z,17.40
2022-10-22T22:17:12.410Z,17.40
2022-10-22T22:19:39.288Z,17.40
2022-10-22T22:22:06.088Z,17.40
2022-10-22T22:24:33.118Z,17.50
2022-10-22T22:27:00.247Z,17.40
2022-10-22T22:29:27.087Z,17.40
2022-10-22T22:31:53.982Z,17.40
2022-10-22T22:34:20.881Z,17.40
2022-10-22T22:36:49.365Z,17.30
2022-10-22T22:39:22.772Z,17.30
2022-10-22T22:41:49.886Z,17.30
2022-10-22T22:44:17.204Z,17.30
2022-10-22T22:46:44.650Z,17.20
2022-10-22T22:49:13.193Z,17.20
2022-10-22T22:51:40.149Z,17.20
2022-10-22T22:54:07.129Z,17.10
2022-10-22T22:56:37.222Z,17.10
2022-10-22T22:59:06.036Z,17.10
2022-10-22T23:01:34.294Z,17.10
2022-10-22T23:04:13.536Z,17.10
2022-10-22T23:06:40.652Z,17.10
2022-10-22T23:09:10.557Z,17.10
2022-10-22T23:11:38.289Z,17.20
2022-10-22T23:14:07.010Z,17.10
2022-10-22T23:16:36.844Z,17.20
2022-10-22T23:19:05.425Z,17.20
2022-10-22T23:21:38.899Z,17.20
2022-10-22T23:24:11.685Z,17.20
2022-10-22T23:26:41.812Z,17.30
2022-10-22T23:29:11.606Z,17.30
2022-10-22T23:31:38.818Z,17.30
2022-10-22T23:34:06.737Z,17.30
2022-10-22T23:36:37.410Z,17.30
2022-10-22T23:39:10.648Z,17.30
2022-10-22T23:41:37.877Z,17.30
2022-10-22T23:44:05.732Z,17.40
2022-10-22T23:46:33.432Z,17.40
2022-10-22T23:49:01.150Z,17.40
2022-10-22T23:51:28.305Z,17.40
2022-10-22T23:53:57.643Z,17.40
2022-10-22T23:56:24.632Z,17.30
2022-10-22T23:58:52.996Z,17.30
